Latest Weather Observations for Lameroo AWS

IDS60801

Issued at 1:01 pm CST Thursday 1 September 2016 (issued every 30 minutes, with the page automatically refreshed every 10 minutes)

About weather observations | Map of weather stations | Latest weather observations for SA | Other Formats
Station Details ID: 025562 Name: AUSTIN PLAINS Lat: -35.38 Lon: 140.54 Height: 110.08 m
Data from the previous 72 hours. | See also: Recent months at Lameroo AWS
Date/Time
CST
Temp
°C
App
Temp
°C
Dew
Point
°C
Rel
Hum
%
Delta-T
°C
Wind Press
QNH
hPa
Press
MSL
hPa
Rain since
9am
mm
Dir  Spd
km/h
Gust
km/h
Spd
kts
Gust
kts
01/01:00pm 16.3 14.6 8.3 59 4.1 NW 7 13 4 7 1015.6 1015.6 0.0
01/12:30pm 15.3 14.1 9.4 68 3.1 N 6 9 3 5 1016.2 1016.2 0.0
01/12:00pm 15.4 14.0 9.7 69 3.0 NNW 7 11 4 6 1016.7 1016.7 0.0
01/11:30am 14.5 13.2 9.9 74 2.4 N 7 11 4 6 1017.2 1017.2 0.0
01/11:00am 14.7 13.2 10.5 76 2.2 NNE 9 13 5 7 1017.6 1017.6 0.0
01/10:30am 14.1 12.5 10.1 77 2.1 NE 9 13 5 7 1017.9 1017.9 0.0
01/10:00am 14.7 13.1 11.5 81 1.7 NE 11 17 6 9 1018.0 1018.0 0.0
01/09:30am 13.6 12.3 9.8 78 2.0 ENE 7 13 4 7 1018.4 1018.4 0.0
01/09:00am 13.2 11.7 10.7 85 1.3 ENE 9 11 5 6 1018.3 1018.4 0.0
01/08:30am 11.9 10.8 10.5 91 0.7 E 7 9 4 5 1018.5 1018.6 0.0
01/08:00am 11.2 - - - - ENE 4 6 2 3 1018.5 1018.6 0.0
01/07:30am 9.5 - - - - ENE 4 6 2 3 1018.1 1018.2 0.0
01/07:00am 8.3 7.9 8.3 100 0.0 CALM 0 0 0 0 1017.9 1018.0 0.0
01/06:30am 9.8 - - - - CALM 0 0 0 0 1018.0 1018.1 0.0
01/06:00am 10.1 - - - - NW 9 13 5 7 1018.1 1018.2 0.0
01/05:30am 10.4 - - - - WNW 9 19 5 10 1017.6 1017.7 0.0
01/05:00am 10.5 - - - - SE 11 13 6 7 1017.3 1017.4 0.0
01/04:30am 10.4 - - - - SE 11 13 6 7 1017.5 1017.6 0.0
01/04:00am 10.0 - - - - S 4 6 2 3 1017.7 1017.8 0.0
01/03:30am 10.1 - - - - SW 6 6 3 3 1018.0 1018.1 0.0
01/03:00am 10.1 - - - - SW 7 9 4 5 1018.0 1018.1 0.0
01/02:30am 10.0 - - - - WSW 6 6 3 3 1018.0 1018.1 0.0
01/02:00am 9.9 - - - - WSW 6 6 3 3 1018.4 1018.5 0.0
01/01:30am 9.8 - - - - NW 4 6 2 3 1018.7 1018.8 0.0
01/01:00am 10.1 - - - - CALM 0 4 0 2 1019.1 1019.2 0.0
01/12:30am 10.5 - - - - WSW 4 6 2 3 1019.1 1019.2 0.0
01/12:00am 10.5 9.9 10.5 100 0.0 WSW 4 6 2 3 1019.0 1019.1 0.0
 
Date/Time
CST
Temp
°C
App
Temp
°C
Dew
Point
°C
Rel
Hum
%
Delta-T
°C
Wind Press
QNH
hPa
Press
MSL
hPa
Rain since
9am
mm
Dir  Spd
km/h
Gust
km/h
Spd
kts
Gust
kts
31/11:30pm 10.5 9.6 10.5 100 0.0 W 6 6 3 3 1018.9 1019.0 0.0
31/11:00pm 10.8 9.7 10.6 99 0.1 SW 7 9 4 5 1018.9 1019.0 0.0
31/10:30pm 11.0 10.0 10.4 96 0.3 SW 6 7 3 4 1019.0 1019.1 0.0
31/10:00pm 11.2 - - - - WSW 4 6 2 3 1019.0 1019.1 0.0
31/09:30pm 11.0 - - - - W 9 9 5 5 1019.0 1019.1 0.0
31/09:00pm 11.4 10.5 11.3 99 0.1 WNW 7 9 4 5 1018.9 1019.0 0.0
31/08:30pm 11.5 - - - - W 6 6 3 3 1018.6 1018.7 0.0
31/08:00pm 11.2 10.2 10.3 94 0.5 W 6 6 3 3 1018.5 1018.6 0.0
31/07:30pm 11.8 11.0 10.9 94 0.5 SW 6 7 3 4 1018.2 1018.3 0.0
31/07:00pm 11.9 11.0 10.5 91 0.7 WSW 6 7 3 4 1018.0 1018.1 0.0
31/06:30pm 12.4 10.9 10.6 89 0.9 SW 9 11 5 6 1017.6 1017.7 0.0
31/06:00pm 13.0 11.2 10.7 86 1.2 WSW 11 15 6 8 1017.4 1017.5 0.0
31/05:30pm 13.3 11.5 10.7 84 1.4 WSW 11 13 6 7 1017.2 1017.3 0.0
31/05:00pm 13.6 11.3 10.6 82 1.6 WSW 13 19 7 10 1017.0 1017.1 0.0
31/04:30pm 14.5 12.8 11.1 80 1.8 W 11 15 6 8 1016.7 1016.8 0.0
31/04:00pm 15.5 12.7 10.1 70 2.8 W 15 20 8 11 1016.6 1016.7 0.0
31/03:30pm 14.6 11.2 10.6 77 2.1 WSW 19 26 10 14 1016.7 1016.8 0.0
31/03:00pm 15.2 11.5 10.2 72 2.6 W 20 32 11 17 1016.5 1016.6 0.0
31/02:30pm 15.7 10.7 9.4 66 3.3 W 26 33 14 18 1016.4 1016.5 0.0
31/02:00pm 15.1 10.6 10.1 72 2.6 W 24 33 13 18 1016.5 1016.6 0.0
31/01:30pm 14.7 9.6 9.1 69 2.9 WSW 26 35 14 19 1016.6 1016.7 0.0
31/01:00pm 14.7 10.2 10.1 74 2.4 W 24 32 13 17 1016.7 1016.8 0.0
31/12:30pm 14.5 11.2 11.5 82 1.6 W 20 30 11 16 1017.1 1017.2 0.0
31/12:00pm 14.0 9.6 10.4 79 1.9 W 24 32 13 17 1017.2 1017.3 0.0
31/11:30am 15.3 10.8 10.1 71 2.7 W 24 32 13 17 1017.1 1017.2 0.0
31/11:00am 15.9 11.2 10.7 71 2.8 W 26 33 14 18 1017.2 1017.3 0.0
31/10:30am 14.9 11.5 10.5 75 2.3 W 19 30 10 16 1017.3 1017.4 0.0
31/10:00am 14.4 10.6 11.2 81 1.7 W 22 33 12 18 1017.3 1017.4 0.0
31/09:30am 14.2 10.9 11.7 85 1.3 W 20 26 11 14 1017.4 1017.5 0.0
31/09:00am 13.3 9.9 11.4 88 1.0 WNW 20 24 11 13 1017.3 1017.4 4.6
31/08:30am 12.1 - - - - WNW 20 24 11 13 1017.1 1017.2 4.6
31/08:00am 10.8 - - - - WNW 17 22 9 12 1016.6 1016.7 4.6
31/07:30am 9.2 - - - - WNW 13 15 7 8 1016.4 1016.5 4.6
31/07:00am 6.3 - - - - NW 9 11 5 6 1015.9 1016.0 4.6
31/06:30am 6.0 - - - - NW 9 11 5 6 1015.6 1015.7 4.6
31/06:00am 6.2 - - - - NW 9 11 5 6 1015.2 1015.3 4.6
31/05:30am 6.3 - - - - NW 11 13 6 7 1014.9 1015.0 4.6
31/05:00am 6.3 - - - - NW 13 15 7 8 1014.4 1014.5 4.4
31/04:30am 6.7 - - - - NW 13 13 7 7 1014.2 1014.3 4.4
31/04:00am 7.2 - - - - NW 15 17 8 9 1013.8 1013.9 4.4
31/03:30am 6.7 - - - - NW 13 17 7 9 1013.5 1013.7 4.4
31/03:00am 6.6 - - - - NW 13 15 7 8 1013.5 1013.7 4.4
31/02:30am 6.8 - - - - NW 11 13 6 7 1013.5 1013.7 4.4
31/02:00am 7.2 - - - - NW 13 15 7 8 1013.6 1013.8 4.4
31/01:30am 8.0 - - - - NNW 11 17 6 9 1013.6 1013.8 4.4
31/01:00am 8.4 - - - - NNW 13 15 7 8 1013.8 1013.9 4.4
31/12:30am 7.8 5.2 7.8 100 0.0 NNW 11 15 6 8 1013.8 1013.9 4.4
31/12:00am 8.7 5.7 7.6 93 0.5 N 13 15 7 8 1013.8 1013.9 4.4
 
Date/Time
CST
Temp
°C
App
Temp
°C
Dew
Point
°C
Rel
Hum
%
Delta-T
°C
Wind Press
QNH
hPa
Press
MSL
hPa
Rain since
9am
mm
Dir  Spd
km/h
Gust
km/h
Spd
kts
Gust
kts
30/11:30pm 9.6 6.8 8.4 92 0.6 N 13 17 7 9 1013.5 1013.7 4.4
30/11:00pm 9.9 7.2 9.0 94 0.4 N 13 17 7 9 1013.4 1013.6 4.4
30/10:30pm 10.6 8.6 10.0 96 0.3 N 11 15 6 8 1013.8 1013.9 4.4
30/10:00pm 11.0 9.2 11.0 100 0.0 N 11 13 6 7 1013.5 1013.7 4.4
30/09:30pm 11.4 - - - - ENE 7 9 4 5 1012.9 1013.1 4.2
30/09:00pm 12.1 - - - - ENE 9 13 5 7 1013.2 1013.4 4.2
30/08:30pm 12.2 - - - - NNW 6 9 3 5 1013.3 1013.5 3.4
30/08:00pm 11.7 10.6 10.6 93 0.6 NNW 7 11 4 6 1013.6 1013.8 0.6
30/07:30pm 11.6 9.7 10.5 93 0.6 NNE 11 13 6 7 1012.5 1012.6 0.4
30/07:00pm 10.7 8.0 9.1 90 0.8 NNE 13 15 7 8 1012.1 1012.2 0.4
30/06:30pm 11.4 8.9 9.7 89 0.9 N 13 15 7 8 1011.9 1012.0 0.4
30/06:00pm 12.8 9.8 10.5 86 1.2 N 17 20 9 11 1011.7 1011.8 0.4
30/05:30pm 15.0 12.9 12.3 84 1.5 N 15 20 8 11 1011.5 1011.6 0.4
30/05:00pm 15.9 14.4 13.2 84 1.5 NNE 13 17 7 9 1011.1 1011.2 0.4
30/04:30pm 15.8 13.1 12.9 83 1.6 NNE 19 24 10 13 1011.4 1011.5 0.4
30/04:00pm 17.1 14.8 13.0 77 2.3 N 17 22 9 12 1010.8 1010.9 0.4
30/03:30pm 17.9 16.5 13.4 75 2.6 NNW 13 20 7 11 1011.1 1011.2 0.4
30/03:00pm 16.5 14.2 13.0 80 2.0 NNW 17 20 9 11 1011.2 1011.3 0.4
30/02:30pm 16.8 15.1 13.5 81 1.9 NNW 15 20 8 11 1011.3 1011.4 0.4
30/02:00pm 15.8 12.4 12.5 81 1.8 N 22 30 12 16 1011.6 1011.7 0.4
30/01:30pm 16.1 11.9 12.5 79 2.0 N 26 35 14 19 1011.5 1011.6 0.2
30/01:00pm 16.4 12.4 12.9 80 2.0 N 26 33 14 18 1011.6 1011.7 0.2
30/12:30pm 15.5 12.5 12.4 82 1.7 N 20 26 11 14 1012.0 1012.1 0.2
30/12:00pm 14.9 11.8 12.2 84 1.5 N 20 26 11 14 1012.7 1012.9 0.2
30/11:30am 14.6 11.3 11.6 82 1.6 N 20 26 11 14 1012.7 1012.9 0.2
30/11:00am 14.8 11.0 11.2 79 1.9 N 22 28 12 15 1013.0 1013.2 0.0
30/10:30am 14.4 11.0 11.4 82 1.6 NNE 20 26 11 14 1013.2 1013.4 0.0
30/10:00am 13.4 10.0 11.1 86 1.2 NNE 20 26 11 14 1013.8 1013.9 0.0
30/09:30am 12.6 9.6 10.8 89 0.9 NE 17 24 9 13 1013.8 1013.9 0.0
30/09:00am 12.2 9.3 10.9 92 0.7 NE 17 24 9 13 1014.3 1014.4 3.0
30/08:30am 12.0 9.3 10.4 90 0.8 NNE 15 17 8 9 1014.6 1014.7 2.0
30/08:00am 11.6 10.1 10.5 93 0.6 NE 9 13 5 7 1014.2 1014.3 2.0
30/07:30am 11.1 9.8 9.9 92 0.6 NE 7 9 4 5 1014.2 1014.3 2.0
30/07:00am 11.1 8.5 9.5 90 0.8 N 13 17 7 9 1014.6 1014.7 1.8
30/06:30am 11.3 8.3 9.4 88 1.0 NE 15 24 8 13 1014.1 1014.2 1.8
30/06:00am 11.2 7.3 9.3 88 1.0 ENE 20 28 11 15 1013.4 1013.6 1.8
30/05:30am 11.3 7.0 9.4 88 1.0 NE 22 28 12 15 1013.3 1013.5 1.8
30/05:00am 11.3 7.0 9.4 88 1.0 NE 22 30 12 16 1014.0 1014.1 1.8
30/04:30am 11.3 6.3 9.6 89 0.9 NE 26 32 14 17 1014.0 1014.1 1.8
30/04:00am 11.1 6.1 9.5 90 0.8 NE 26 33 14 18 1014.1 1014.2 1.8
30/03:30am 11.1 6.1 9.7 91 0.7 NE 26 32 14 17 1014.7 1014.8 1.8
30/03:00am 11.2 6.2 9.6 90 0.8 NE 26 33 14 18 1015.1 1015.2 1.4
30/02:30am 11.4 7.2 9.7 89 0.9 NE 22 28 12 15 1015.3 1015.4 1.4
30/02:00am 11.3 6.7 9.7 90 0.8 NE 24 30 13 16 1015.3 1015.4 1.4
30/01:30am 11.2 6.6 9.8 91 0.7 NE 24 30 13 16 1015.6 1015.7 1.2
30/01:00am 11.4 6.8 9.8 90 0.8 NNE 24 33 13 18 1016.1 1016.2 1.2
30/12:30am 11.5 6.6 9.8 89 0.9 NNE 26 35 14 19 1016.5 1016.6 1.0
30/12:00am 11.9 6.7 8.9 82 1.5 N 26 33 14 18 1017.0 1017.1 0.8
 
Date/Time
CST
Temp
°C
App
Temp
°C
Dew
Point
°C
Rel
Hum
%
Delta-T
°C
Wind Press
QNH
hPa
Press
MSL
hPa
Rain since
9am
mm
Dir  Spd
km/h
Gust
km/h
Spd
kts
Gust
kts
29/11:30pm 12.1 7.6 8.4 78 1.8 NNE 22 28 12 15 1017.0 1017.1 0.4
29/11:00pm 12.2 8.3 8.5 78 1.8 NNE 19 22 10 12 1016.6 1016.7 0.2
29/10:30pm 12.0 8.1 8.8 81 1.6 NE 19 22 10 12 1016.5 1016.6 0.2
29/10:00pm 11.9 8.9 9.1 83 1.4 NE 15 17 8 9 1016.5 1016.6 0.2
29/09:30pm 12.5 9.1 9.0 79 1.8 NNE 17 20 9 11 1016.9 1017.0 0.0
29/09:00pm 12.7 9.2 8.6 76 2.1 N 17 20 9 11 1017.2 1017.3 0.0
29/08:30pm 14.3 9.1 7.1 62 3.5 N 24 32 13 17 1017.2 1017.3 0.0
29/08:00pm 15.8 9.4 5.4 50 5.0 N 28 37 15 20 1017.2 1017.3 0.0
29/07:30pm 15.1 9.9 5.6 53 4.5 NNE 22 28 12 15 1016.8 1016.9 0.0
29/07:00pm 15.6 10.5 4.3 47 5.3 NNE 20 22 11 12 1016.4 1016.5 0.0
29/06:30pm 15.2 10.2 4.6 49 5.0 NE 20 24 11 13 1015.9 1016.0 0.0
29/06:00pm 15.5 10.5 4.6 48 5.1 NE 20 24 11 13 1015.5 1015.6 0.0
29/05:30pm 16.3 10.9 4.7 46 5.5 NNE 22 28 12 15 1015.1 1015.2 0.0
29/05:00pm 16.9 10.8 4.9 45 5.7 NE 26 32 14 17 1014.6 1014.7 0.0
29/04:30pm 17.6 12.8 5.5 45 5.9 NE 20 26 11 14 1014.8 1014.9 0.0
29/04:00pm 17.8 12.5 5.1 43 6.1 NNE 22 28 12 15 1015.0 1015.1 0.0
29/03:30pm 18.2 12.2 5.1 42 6.3 NNE 26 33 14 18 1015.0 1015.1 0.0
29/03:00pm 18.7 12.7 5.2 41 6.6 NNE 26 35 14 19 1015.1 1015.2 0.0
29/02:30pm 19.1 12.3 5.2 40 6.8 NNE 30 37 16 20 1015.7 1015.8 0.0
29/02:00pm 18.9 12.3 4.3 38 7.0 NNE 28 35 15 19 1015.8 1015.9 0.0
29/01:30pm 19.3 13.4 5.7 41 6.7 NNE 26 35 14 19 1016.2 1016.3 0.0

Other Formats:

Comma delimited format used in spreadsheet applications
http://www.bom.gov.au/fwo/IDS60801/IDS60801.94690.axf

JavaScript Object Notation format (JSON) in row-major order
http://www.bom.gov.au/fwo/IDS60801/IDS60801.94690.json